AKT2801 CYHM-CYSB
Flight info
| Callsign | AKT2801 |
|---|---|
| Flight time | 0h 19m |
| Altitude | 36000 |
| Route | YVV/N0459F350 DCT BUDAG |
| Aircraft | B737/M-SDE2E3FGHIRWXY/LB1 |
Departure
| Time | 2026-04-21 04:07 |
|---|---|
| Airport | John C. Munro Hamilton International Airport (CYHM) |
Arrival
| Time | 2026-04-21 04:27 |
|---|---|
| Airport | Sudbury Airport (CYSB) |
| Time | Latitude | Longitude | Altitude | Speed | Heading |
|---|---|---|---|---|---|
| 2026-04-21 03:54 | 43.16397 | -79.92516 | 776 ft | 0 kts | 197° |
| 2026-04-21 04:00 | 43.16407 | -79.92511 | 776 ft | 4 kts | 197° |
| 2026-04-21 04:01 | 43.16433 | -79.92500 | 776 ft | 4 kts | 199° |
| 2026-04-21 04:01 | 43.16458 | -79.92486 | 776 ft | 4 kts | 213° |
| 2026-04-21 04:01 | 43.16476 | -79.92462 | 776 ft | 4 kts | 248° |
| 2026-04-21 04:01 | 43.16479 | -79.92438 | 776 ft | 1 kts | 287° |
| 2026-04-21 04:02 | 43.16478 | -79.92434 | 776 ft | 0 kts | 287° |
| 2026-04-21 04:03 | 43.16512 | -79.92468 | 776 ft | 11 kts | 347° |
| 2026-04-21 04:03 | 43.16605 | -79.92504 | 776 ft | 16 kts | 334° |
| 2026-04-21 04:03 | 43.16719 | -79.92591 | 776 ft | 23 kts | 330° |
| 2026-04-21 04:04 | 43.16877 | -79.92716 | 776 ft | 27 kts | 330° |
| 2026-04-21 04:04 | 43.17018 | -79.92825 | 776 ft | 11 kts | 331° |
| 2026-04-21 04:04 | 43.17092 | -79.92809 | 772 ft | 13 kts | 42° |
| 2026-04-21 04:04 | 43.17149 | -79.92720 | 773 ft | 12 kts | 49° |
| 2026-04-21 04:05 | 43.17207 | -79.92631 | 776 ft | 15 kts | 48° |
| 2026-04-21 04:05 | 43.17305 | -79.92480 | 776 ft | 25 kts | 49° |
| 2026-04-21 04:05 | 43.17418 | -79.92302 | 776 ft | 25 kts | 48° |
| 2026-04-21 04:05 | 43.17542 | -79.92110 | 772 ft | 28 kts | 48° |
| 2026-04-21 04:06 | 43.17669 | -79.91898 | 767 ft | 24 kts | 65° |
| 2026-04-21 04:06 | 43.17716 | -79.91840 | 767 ft | 7 kts | 284° |
| 2026-04-21 04:06 | 43.17665 | -79.91928 | 767 ft | 35 kts | 229° |
| 2026-04-21 04:06 | 43.17306 | -79.92483 | 776 ft | 117 kts | 228° |
| 2026-04-21 04:07 | 43.16632 | -79.93555 | 989 ft | 164 kts | 230° |
| 2026-04-21 04:07 | 43.15948 | -79.94720 | 2169 ft | 156 kts | 231° |
| 2026-04-21 04:07 | 43.15212 | -79.95891 | 3005 ft | 172 kts | 230° |
| 2026-04-21 04:07 | 43.14343 | -79.97267 | 3396 ft | 208 kts | 231° |
| 2026-04-21 04:08 | 43.16811 | -80.02981 | 6733 ft | 246 kts | 342° |
| 2026-04-21 04:08 | 43.23257 | -80.06483 | 10875 ft | 259 kts | 333° |
| 2026-04-21 04:08 | 43.30331 | -80.11098 | 13685 ft | 310 kts | 332° |
| 2026-04-21 04:08 | 43.38168 | -80.16355 | 15834 ft | 356 kts | 332° |
| 2026-04-21 04:09 | 43.46516 | -80.21982 | 18783 ft | 365 kts | 333° |
| 2026-04-21 04:09 | 43.55840 | -80.28276 | 21389 ft | 376 kts | 333° |
| 2026-04-21 04:09 | 43.65352 | -80.34731 | 23914 ft | 385 kts | 333° |
| 2026-04-21 04:09 | 43.75076 | -80.41354 | 25819 ft | 392 kts | 333° |
| 2026-04-21 04:10 | 43.84851 | -80.48036 | 27544 ft | 397 kts | 333° |
| 2026-04-21 04:10 | 43.94817 | -80.54871 | 29213 ft | 397 kts | 333° |
| 2026-04-21 04:10 | 44.04639 | -80.61637 | 31272 ft | 388 kts | 333° |
| 2026-04-21 04:10 | 44.14421 | -80.68402 | 32618 ft | 390 kts | 333° |
| 2026-04-21 04:11 | 44.24070 | -80.75093 | 34060 ft | 389 kts | 333° |
| 2026-04-21 04:11 | 44.33688 | -80.81752 | 35171 ft | 388 kts | 333° |
| 2026-04-21 04:11 | 44.43438 | -80.88573 | 35964 ft | 393 kts | 332° |
| 2026-04-21 04:11 | 44.53285 | -80.95497 | 36406 ft | 400 kts | 332° |
| 2026-04-21 04:12 | 44.63326 | -81.02583 | 36331 ft | 404 kts | 332° |
| 2026-04-21 04:12 | 44.73381 | -81.09034 | 36262 ft | 404 kts | 344° |
| 2026-04-21 04:12 | 44.84660 | -81.08055 | 36313 ft | 410 kts | 5° |
| 2026-04-21 04:13 | 45.06867 | -81.01959 | 36327 ft | 402 kts | 4° |
| 2026-04-21 04:13 | 45.28765 | -80.96159 | 36344 ft | 404 kts | 4° |
| 2026-04-21 04:14 | 45.51297 | -80.90121 | 36072 ft | 417 kts | 4° |
| 2026-04-21 04:14 | 45.62641 | -80.87049 | 32883 ft | 410 kts | 4° |
| 2026-04-21 04:14 | 45.73768 | -80.84038 | 28559 ft | 412 kts | 4° |
| 2026-04-21 04:14 | 45.84741 | -80.81034 | 25570 ft | 389 kts | 4° |
| 2026-04-21 04:15 | 45.95144 | -80.78192 | 22784 ft | 373 kts | 4° |
| 2026-04-21 04:15 | 46.05154 | -80.75459 | 20023 ft | 364 kts | 5° |
| 2026-04-21 04:15 | 46.15168 | -80.72716 | 17214 ft | 366 kts | 6° |
| 2026-04-21 04:15 | 46.25149 | -80.69957 | 14205 ft | 360 kts | 6° |
| 2026-04-21 04:16 | 46.34843 | -80.67265 | 11265 ft | 349 kts | 7° |
| 2026-04-21 04:16 | 46.40840 | -80.65591 | 9742 ft | 320 kts | 8° |
| 2026-04-21 04:16 | 46.42998 | -80.64989 | 9529 ft | 312 kts | 10° |
| 2026-04-21 04:16 | 46.45075 | -80.64413 | 9820 ft | 303 kts | 8° |
| 2026-04-21 04:17 | 46.47150 | -80.63837 | 9550 ft | 293 kts | 6° |
| 2026-04-21 04:17 | 46.49111 | -80.63289 | 9265 ft | 285 kts | 6° |
| 2026-04-21 04:17 | 46.51048 | -80.62749 | 8983 ft | 278 kts | 6° |
| 2026-04-21 04:17 | 46.52939 | -80.62220 | 8747 ft | 272 kts | 6° |
| 2026-04-21 04:18 | 46.54760 | -80.61712 | 8487 ft | 266 kts | 6° |
| 2026-04-21 04:18 | 46.56563 | -80.61208 | 8200 ft | 262 kts | 6° |
| 2026-04-21 04:18 | 46.58339 | -80.60712 | 7872 ft | 261 kts | 6° |
| 2026-04-21 04:18 | 46.60128 | -80.60213 | 7494 ft | 261 kts | 6° |
| 2026-04-21 04:19 | 46.61920 | -80.59712 | 7123 ft | 261 kts | 6° |
| 2026-04-21 04:19 | 46.63705 | -80.59213 | 6743 ft | 263 kts | 6° |
| 2026-04-21 04:19 | 46.65511 | -80.58706 | 6344 ft | 263 kts | 6° |
| 2026-04-21 04:19 | 46.67294 | -80.58205 | 5992 ft | 262 kts | 6° |
| 2026-04-21 04:20 | 46.69085 | -80.57700 | 5670 ft | 260 kts | 6° |
| 2026-04-21 04:20 | 46.70861 | -80.57200 | 5381 ft | 257 kts | 6° |
| 2026-04-21 04:20 | 46.72596 | -80.56810 | 5069 ft | 250 kts | 353° |
| 2026-04-21 04:20 | 46.74195 | -80.57462 | 4773 ft | 232 kts | 322° |
| 2026-04-21 04:21 | 46.75342 | -80.58955 | 4553 ft | 214 kts | 301° |
| 2026-04-21 04:21 | 46.76102 | -80.60708 | 4428 ft | 197 kts | 295° |
| 2026-04-21 04:21 | 46.76758 | -80.62394 | 4307 ft | 182 kts | 293° |
| 2026-04-21 04:21 | 46.77161 | -80.63432 | 4270 ft | 173 kts | 293° |
| 2026-04-21 04:22 | 46.77663 | -80.64950 | 4177 ft | 157 kts | 274° |
| 2026-04-21 04:22 | 46.77117 | -80.66642 | 4189 ft | 149 kts | 228° |
| 2026-04-21 04:22 | 46.76632 | -80.67381 | 4190 ft | 155 kts | 227° |
| 2026-04-21 04:22 | 46.75490 | -80.68739 | 3873 ft | 158 kts | 219° |
| 2026-04-21 04:23 | 46.74887 | -80.69366 | 3726 ft | 155 kts | 217° |
| 2026-04-21 04:23 | 46.73989 | -80.70194 | 3571 ft | 154 kts | 214° |
| 2026-04-21 04:23 | 46.73073 | -80.70983 | 3501 ft | 155 kts | 213° |
| 2026-04-21 04:23 | 46.72127 | -80.71781 | 3297 ft | 155 kts | 212° |
| 2026-04-21 04:24 | 46.71216 | -80.72546 | 3080 ft | 143 kts | 212° |
| 2026-04-21 04:24 | 46.70400 | -80.73230 | 2879 ft | 132 kts | 211° |
| 2026-04-21 04:24 | 46.69628 | -80.73879 | 2751 ft | 124 kts | 211° |
| 2026-04-21 04:24 | 46.68880 | -80.74509 | 2542 ft | 124 kts | 211° |
| 2026-04-21 04:25 | 46.68132 | -80.75136 | 2356 ft | 121 kts | 210° |
| 2026-04-21 04:25 | 46.67399 | -80.75752 | 2178 ft | 121 kts | 210° |
| 2026-04-21 04:25 | 46.66667 | -80.76366 | 1983 ft | 125 kts | 209° |
| 2026-04-21 04:25 | 46.65902 | -80.77020 | 1774 ft | 129 kts | 211° |
| 2026-04-21 04:26 | 46.65156 | -80.77715 | 1642 ft | 126 kts | 209° |
| 2026-04-21 04:26 | 46.64400 | -80.78350 | 1427 ft | 125 kts | 205° |
| 2026-04-21 04:26 | 46.63626 | -80.78973 | 1249 ft | 126 kts | 208° |
| 2026-04-21 04:26 | 46.62914 | -80.79547 | 1145 ft | 96 kts | 209° |
| 2026-04-21 04:27 | 46.62509 | -80.79873 | 1146 ft | 45 kts | 209° |
| 2026-04-21 04:27 | 46.62254 | -80.80083 | 1148 ft | 39 kts | 209° |
| 2026-04-21 04:27 | 46.62030 | -80.80268 | 1146 ft | 35 kts | 210° |
| 2026-04-21 04:27 | 46.61842 | -80.80425 | 1147 ft | 18 kts | 210° |
| 2026-04-21 04:28 | 46.61749 | -80.80377 | 1150 ft | 17 kts | 106° |
| 2026-04-21 04:28 | 46.61773 | -80.80215 | 1148 ft | 16 kts | 72° |
| 2026-04-21 04:28 | 46.61834 | -80.80085 | 1147 ft | 16 kts | 34° |
| 2026-04-21 04:28 | 46.61927 | -80.80008 | 1147 ft | 15 kts | 29° |
| 2026-04-21 04:29 | 46.62016 | -80.79936 | 1149 ft | 14 kts | 29° |
| 2026-04-21 04:29 | 46.62100 | -80.79865 | 1149 ft | 14 kts | 30° |
| 2026-04-21 04:29 | 46.62181 | -80.79798 | 1148 ft | 13 kts | 27° |
| 2026-04-21 04:29 | 46.62230 | -80.79719 | 1148 ft | 6 kts | 66° |
| 2026-04-21 04:30 | 46.62232 | -80.79710 | 1148 ft | 0 kts | 66° |